sensor_id;sensor_type;location;lat;lon;timestamp;temperature;humidity
2024;DHT22;1016;48.770;9.154;2023-12-14T00:02:01;11.50;99.90
2024;DHT22;1016;48.770;9.154;2023-12-14T00:04:26;11.50;99.90
2024;DHT22;1016;48.770;9.154;2023-12-14T00:06:52;11.50;99.90
2024;DHT22;1016;48.770;9.154;2023-12-14T00:09:19;11.50;99.90
2024;DHT22;1016;48.770;9.154;2023-12-14T00:11:44;11.50;99.90
2024;DHT22;1016;48.770;9.154;2023-12-14T00:14:10;11.50;99.90
2024;DHT22;1016;48.770;9.154;2023-12-14T00:16:35;11.70;99.90
2024;DHT22;1016;48.770;9.154;2023-12-14T00:19:01;11.50;99.90
2024;DHT22;1016;48.770;9.154;2023-12-14T00:21:27;11.50;99.90
2024;DHT22;1016;48.770;9.154;2023-12-14T00:23:53;11.50;99.90
2024;DHT22;1016;48.770;9.154;2023-12-14T00:26:20;11.70;99.90
2024;DHT22;1016;48.770;9.154;2023-12-14T00:28:46;11.50;99.90
2024;DHT22;1016;48.770;9.154;2023-12-14T00:31:13;11.50;99.90
2024;DHT22;1016;48.770;9.154;2023-12-14T00:33:38;11.50;99.90
2024;DHT22;1016;48.770;9.154;2023-12-14T00:36:04;11.50;99.90
2024;DHT22;1016;48.770;9.154;2023-12-14T00:38:30;11.50;99.90
2024;DHT22;1016;48.770;9.154;2023-12-14T00:40:58;11.50;99.90
2024;DHT22;1016;48.770;9.154;2023-12-14T00:43:24;11.50;99.90
2024;DHT22;1016;48.770;9.154;2023-12-14T00:45:49;11.30;99.90
2024;DHT22;1016;48.770;9.154;2023-12-14T00:48:15;11.50;99.90
2024;DHT22;1016;48.770;9.154;2023-12-14T00:50:40;11.40;99.90
2024;DHT22;1016;48.770;9.154;2023-12-14T00:53:06;11.50;99.90
2024;DHT22;1016;48.770;9.154;2023-12-14T00:55:32;11.40;99.90
2024;DHT22;1016;48.770;9.154;2023-12-14T00:57:57;11.40;99.90
2024;DHT22;1016;48.770;9.154;2023-12-14T01:00:23;11.40;99.90
2024;DHT22;1016;48.770;9.154;2023-12-14T01:02:49;11.50;99.90
2024;DHT22;1016;48.770;9.154;2023-12-14T01:05:14;11.40;99.90
2024;DHT22;1016;48.770;9.154;2023-12-14T01:07:40;11.50;99.90
2024;DHT22;1016;48.770;9.154;2023-12-14T01:10:06;11.40;99.90
2024;DHT22;1016;48.770;9.154;2023-12-14T01:12:32;11.50;99.90
2024;DHT22;1016;48.770;9.154;2023-12-14T01:14:57;11.50;99.90
2024;DHT22;1016;48.770;9.154;2023-12-14T01:17:23;11.50;99.90
2024;DHT22;1016;48.770;9.154;2023-12-14T01:19:49;11.40;99.90
2024;DHT22;1016;48.770;9.154;2023-12-14T01:22:15;11.50;99.90
2024;DHT22;1016;48.770;9.154;2023-12-14T01:24:40;11.40;99.90
2024;DHT22;1016;48.770;9.154;2023-12-14T01:27:06;11.60;99.90
2024;DHT22;1016;48.770;9.154;2023-12-14T01:29:32;11.50;99.90
2024;DHT22;1016;48.770;9.154;2023-12-14T01:31:57;11.50;99.90
2024;DHT22;1016;48.770;9.154;2023-12-14T01:34:23;11.50;99.90
2024;DHT22;1016;48.770;9.154;2023-12-14T01:36:48;11.50;99.90
2024;DHT22;1016;48.770;9.154;2023-12-14T01:39:14;11.50;99.90
2024;DHT22;1016;48.770;9.154;2023-12-14T01:41:39;11.50;99.90
2024;DHT22;1016;48.770;9.154;2023-12-14T01:44:05;11.50;99.90
2024;DHT22;1016;48.770;9.154;2023-12-14T01:46:31;11.50;99.90
2024;DHT22;1016;48.770;9.154;2023-12-14T01:48:56;11.50;99.90
2024;DHT22;1016;48.770;9.154;2023-12-14T01:51:22;11.50;99.90
2024;DHT22;1016;48.770;9.154;2023-12-14T01:53:47;11.50;99.90
2024;DHT22;1016;48.770;9.154;2023-12-14T01:56:13;11.50;99.90
2024;DHT22;1016;48.770;9.154;2023-12-14T01:58:40;11.50;99.90
2024;DHT22;1016;48.770;9.154;2023-12-14T02:01:23;11.50;99.90
2024;DHT22;1016;48.770;9.154;2023-12-14T02:03:51;11.50;99.90
2024;DHT22;1016;48.770;9.154;2023-12-14T02:06:17;11.50;99.90
2024;DHT22;1016;48.770;9.154;2023-12-14T02:08:43;11.50;99.90
2024;DHT22;1016;48.770;9.154;2023-12-14T02:11:09;11.50;99.90
2024;DHT22;1016;48.770;9.154;2023-12-14T02:13:35;11.50;99.90
2024;DHT22;1016;48.770;9.154;2023-12-14T02:16:02;11.50;99.90
2024;DHT22;1016;48.770;9.154;2023-12-14T02:18:28;11.50;99.90
2024;DHT22;1016;48.770;9.154;2023-12-14T02:20:53;11.60;99.90
2024;DHT22;1016;48.770;9.154;2023-12-14T02:23:19;11.50;99.90
2024;DHT22;1016;48.770;9.154;2023-12-14T02:25:44;11.50;99.90
2024;DHT22;1016;48.770;9.154;2023-12-14T02:28:10;11.50;99.90
2024;DHT22;1016;48.770;9.154;2023-12-14T02:30:36;11.50;99.90
2024;DHT22;1016;48.770;9.154;2023-12-14T02:33:01;11.50;99.90
2024;DHT22;1016;48.770;9.154;2023-12-14T02:35:29;11.50;99.90
2024;DHT22;1016;48.770;9.154;2023-12-14T02:37:54;11.70;99.90
2024;DHT22;1016;48.770;9.154;2023-12-14T02:40:20;11.50;99.90
2024;DHT22;1016;48.770;9.154;2023-12-14T02:42:45;11.70;99.90
2024;DHT22;1016;48.770;9.154;2023-12-14T02:45:11;11.50;99.90
2024;DHT22;1016;48.770;9.154;2023-12-14T02:47:36;11.50;99.90
2024;DHT22;1016;48.770;9.154;2023-12-14T02:50:02;11.50;99.90
2024;DHT22;1016;48.770;9.154;2023-12-14T02:52:28;11.50;99.90
2024;DHT22;1016;48.770;9.154;2023-12-14T02:54:53;11.50;99.90
2024;DHT22;1016;48.770;9.154;2023-12-14T02:57:19;11.50;99.90
2024;DHT22;1016;48.770;9.154;2023-12-14T02:59:45;11.50;99.90
2024;DHT22;1016;48.770;9.154;2023-12-14T03:02:10;11.50;99.90
2024;DHT22;1016;48.770;9.154;2023-12-14T03:04:39;11.50;99.90
2024;DHT22;1016;48.770;9.154;2023-12-14T03:07:07;11.50;99.90
2024;DHT22;1016;48.770;9.154;2023-12-14T03:09:34;11.60;99.90
2024;DHT22;1016;48.770;9.154;2023-12-14T03:12:01;11.60;99.90
2024;DHT22;1016;48.770;9.154;2023-12-14T03:14:32;11.70;99.90
2024;DHT22;1016;48.770;9.154;2023-12-14T03:16:59;11.60;99.90
2024;DHT22;1016;48.770;9.154;2023-12-14T03:19:25;11.60;99.90
2024;DHT22;1016;48.770;9.154;2023-12-14T03:21:51;11.60;99.90
2024;DHT22;1016;48.770;9.154;2023-12-14T03:24:16;11.60;99.90
2024;DHT22;1016;48.770;9.154;2023-12-14T03:26:42;11.60;99.90
2024;DHT22;1016;48.770;9.154;2023-12-14T03:29:08;11.60;99.90
2024;DHT22;1016;48.770;9.154;2023-12-14T03:31:34;11.60;99.90
2024;DHT22;1016;48.770;9.154;2023-12-14T03:34:01;11.60;99.90
2024;DHT22;1016;48.770;9.154;2023-12-14T03:36:26;11.60;99.90
2024;DHT22;1016;48.770;9.154;2023-12-14T03:38:53;11.60;99.90
2024;DHT22;1016;48.770;9.154;2023-12-14T03:41:18;11.60;99.90
2024;DHT22;1016;48.770;9.154;2023-12-14T03:43:44;11.60;99.90
2024;DHT22;1016;48.770;9.154;2023-12-14T03:46:10;11.60;99.90
2024;DHT22;1016;48.770;9.154;2023-12-14T03:48:35;11.60;99.90
2024;DHT22;1016;48.770;9.154;2023-12-14T03:51:05;11.70;99.90
2024;DHT22;1016;48.770;9.154;2023-12-14T03:53:30;11.60;99.90
2024;DHT22;1016;48.770;9.154;2023-12-14T03:55:57;11.80;99.90
2024;DHT22;1016;48.770;9.154;2023-12-14T03:58:23;11.50;99.90
2024;DHT22;1016;48.770;9.154;2023-12-14T04:00:48;11.50;99.90
2024;DHT22;1016;48.770;9.154;2023-12-14T04:03:14;11.50;99.90
2024;DHT22;1016;48.770;9.154;2023-12-14T04:05:39;11.60;99.90
2024;DHT22;1016;48.770;9.154;2023-12-14T04:08:05;11.60;99.90
2024;DHT22;1016;48.770;9.154;2023-12-14T04:10:31;11.50;99.90
2024;DHT22;1016;48.770;9.154;2023-12-14T04:12:56;11.60;99.90
2024;DHT22;1016;48.770;9.154;2023-12-14T04:15:22;11.60;99.90
2024;DHT22;1016;48.770;9.154;2023-12-14T04:17:47;11.60;99.90
2024;DHT22;1016;48.770;9.154;2023-12-14T04:20:13;11.60;99.90
2024;DHT22;1016;48.770;9.154;2023-12-14T04:22:44;11.60;99.90
2024;DHT22;1016;48.770;9.154;2023-12-14T04:25:10;11.60;99.90
2024;DHT22;1016;48.770;9.154;2023-12-14T04:27:36;11.60;99.90
2024;DHT22;1016;48.770;9.154;2023-12-14T04:30:01;11.70;99.90
2024;DHT22;1016;48.770;9.154;2023-12-14T04:32:27;11.60;99.90
2024;DHT22;1016;48.770;9.154;2023-12-14T04:34:54;11.60;99.90
2024;DHT22;1016;48.770;9.154;2023-12-14T04:37:19;11.60;99.90
2024;DHT22;1016;48.770;9.154;2023-12-14T04:39:45;11.60;99.90
2024;DHT22;1016;48.770;9.154;2023-12-14T04:42:11;11.60;99.90
2024;DHT22;1016;48.770;9.154;2023-12-14T04:44:36;11.60;99.90
2024;DHT22;1016;48.770;9.154;2023-12-14T04:47:02;11.60;99.90
2024;DHT22;1016;48.770;9.154;2023-12-14T04:49:29;11.60;99.90
2024;DHT22;1016;48.770;9.154;2023-12-14T04:51:54;11.60;99.90
2024;DHT22;1016;48.770;9.154;2023-12-14T04:54:20;11.60;99.90
2024;DHT22;1016;48.770;9.154;2023-12-14T04:56:46;11.60;99.90
2024;DHT22;1016;48.770;9.154;2023-12-14T04:59:11;11.60;99.90
2024;DHT22;1016;48.770;9.154;2023-12-14T05:01:37;11.80;99.90
2024;DHT22;1016;48.770;9.154;2023-12-14T05:04:02;11.60;99.90
2024;DHT22;1016;48.770;9.154;2023-12-14T05:06:29;11.60;99.90
2024;DHT22;1016;48.770;9.154;2023-12-14T05:08:54;11.60;99.90
2024;DHT22;1016;48.770;9.154;2023-12-14T05:11:21;11.60;99.90
2024;DHT22;1016;48.770;9.154;2023-12-14T05:13:47;11.60;99.90
2024;DHT22;1016;48.770;9.154;2023-12-14T05:16:14;11.60;99.90
2024;DHT22;1016;48.770;9.154;2023-12-14T05:18:40;11.60;99.90
2024;DHT22;1016;48.770;9.154;2023-12-14T05:21:08;11.60;99.90
2024;DHT22;1016;48.770;9.154;2023-12-14T05:23:33;11.50;99.90
2024;DHT22;1016;48.770;9.154;2023-12-14T05:25:59;11.60;99.90
2024;DHT22;1016;48.770;9.154;2023-12-14T05:28:25;11.70;99.90
2024;DHT22;1016;48.770;9.154;2023-12-14T05:30:50;11.60;99.90
2024;DHT22;1016;48.770;9.154;2023-12-14T05:33:16;11.60;99.90
2024;DHT22;1016;48.770;9.154;2023-12-14T05:35:42;11.50;99.90
2024;DHT22;1016;48.770;9.154;2023-12-14T05:38:07;11.60;99.90
2024;DHT22;1016;48.770;9.154;2023-12-14T05:40:33;11.80;99.90
2024;DHT22;1016;48.770;9.154;2023-12-14T05:42:58;11.60;99.90
2024;DHT22;1016;48.770;9.154;2023-12-14T05:45:24;11.60;99.90
2024;DHT22;1016;48.770;9.154;2023-12-14T05:47:51;11.60;99.90
2024;DHT22;1016;48.770;9.154;2023-12-14T05:50:16;11.60;99.90
2024;DHT22;1016;48.770;9.154;2023-12-14T05:52:42;11.60;99.90
2024;DHT22;1016;48.770;9.154;2023-12-14T05:55:10;11.60;99.90
2024;DHT22;1016;48.770;9.154;2023-12-14T05:57:36;11.60;99.90
2024;DHT22;1016;48.770;9.154;2023-12-14T06:00:06;11.60;99.90
2024;DHT22;1016;48.770;9.154;2023-12-14T06:02:33;11.60;99.90
2024;DHT22;1016;48.770;9.154;2023-12-14T06:04:58;11.60;99.90
2024;DHT22;1016;48.770;9.154;2023-12-14T06:07:24;11.40;99.90
2024;DHT22;1016;48.770;9.154;2023-12-14T06:09:50;11.70;99.90
2024;DHT22;1016;48.770;9.154;2023-12-14T06:12:16;11.90;99.90
2024;DHT22;1016;48.770;9.154;2023-12-14T06:14:41;11.60;99.90
2024;DHT22;1016;48.770;9.154;2023-12-14T06:17:07;11.70;99.90
2024;DHT22;1016;48.770;9.154;2023-12-14T06:19:32;11.60;99.90
2024;DHT22;1016;48.770;9.154;2023-12-14T06:21:58;11.60;99.90
2024;DHT22;1016;48.770;9.154;2023-12-14T06:24:24;11.80;99.90
2024;DHT22;1016;48.770;9.154;2023-12-14T06:26:49;11.60;99.90
2024;DHT22;1016;48.770;9.154;2023-12-14T06:29:16;11.60;99.90
2024;DHT22;1016;48.770;9.154;2023-12-14T06:31:45;11.70;99.90
2024;DHT22;1016;48.770;9.154;2023-12-14T06:34:10;11.90;99.90
2024;DHT22;1016;48.770;9.154;2023-12-14T06:36:36;11.60;99.90
2024;DHT22;1016;48.770;9.154;2023-12-14T06:39:06;11.60;99.90
2024;DHT22;1016;48.770;9.154;2023-12-14T06:41:32;11.60;99.90
2024;DHT22;1016;48.770;9.154;2023-12-14T06:43:58;11.70;99.90
2024;DHT22;1016;48.770;9.154;2023-12-14T06:46:24;11.70;99.90
2024;DHT22;1016;48.770;9.154;2023-12-14T06:48:49;11.70;99.90
2024;DHT22;1016;48.770;9.154;2023-12-14T06:51:22;11.60;99.90
2024;DHT22;1016;48.770;9.154;2023-12-14T06:53:48;11.60;99.90
2024;DHT22;1016;48.770;9.154;2023-12-14T06:56:14;11.80;99.90
2024;DHT22;1016;48.770;9.154;2023-12-14T06:58:41;11.70;99.90
2024;DHT22;1016;48.770;9.154;2023-12-14T07:01:11;11.70;99.90
2024;DHT22;1016;48.770;9.154;2023-12-14T07:03:43;11.70;99.90
2024;DHT22;1016;48.770;9.154;2023-12-14T07:06:15;11.70;99.90
2024;DHT22;1016;48.770;9.154;2023-12-14T07:08:42;11.70;99.90
2024;DHT22;1016;48.770;9.154;2023-12-14T07:11:08;11.70;99.90
2024;DHT22;1016;48.770;9.154;2023-12-14T07:13:34;11.70;99.90
2024;DHT22;1016;48.770;9.154;2023-12-14T07:16:06;11.70;99.90
2024;DHT22;1016;48.770;9.154;2023-12-14T07:18:36;11.70;99.90
2024;DHT22;1016;48.770;9.154;2023-12-14T07:21:06;11.60;99.90
2024;DHT22;1016;48.770;9.154;2023-12-14T07:23:33;11.70;99.90
2024;DHT22;1016;48.770;9.154;2023-12-14T07:25:58;11.70;99.90
2024;DHT22;1016;48.770;9.154;2023-12-14T07:28:26;11.70;99.90
2024;DHT22;1016;48.770;9.154;2023-12-14T07:30:51;11.70;99.90
2024;DHT22;1016;48.770;9.154;2023-12-14T07:33:17;11.60;99.90
2024;DHT22;1016;48.770;9.154;2023-12-14T07:35:42;11.70;99.90
2024;DHT22;1016;48.770;9.154;2023-12-14T07:38:10;11.60;99.90
2024;DHT22;1016;48.770;9.154;2023-12-14T07:40:35;11.70;99.90
2024;DHT22;1016;48.770;9.154;2023-12-14T07:43:01;11.70;99.90
2024;DHT22;1016;48.770;9.154;2023-12-14T07:45:28;11.90;99.90
2024;DHT22;1016;48.770;9.154;2023-12-14T07:47:53;11.70;99.90
2024;DHT22;1016;48.770;9.154;2023-12-14T07:50:19;11.70;99.90
2024;DHT22;1016;48.770;9.154;2023-12-14T07:52:45;11.70;99.90
2024;DHT22;1016;48.770;9.154;2023-12-14T07:55:10;11.70;99.90
2024;DHT22;1016;48.770;9.154;2023-12-14T07:57:38;11.70;99.90
2024;DHT22;1016;48.770;9.154;2023-12-14T08:00:06;11.70;99.90
2024;DHT22;1016;48.770;9.154;2023-12-14T08:02:34;11.70;99.90
2024;DHT22;1016;48.770;9.154;2023-12-14T08:05:03;11.70;99.90
2024;DHT22;1016;48.770;9.154;2023-12-14T08:07:29;11.70;99.90
2024;DHT22;1016;48.770;9.154;2023-12-14T08:09:55;11.70;99.90
2024;DHT22;1016;48.770;9.154;2023-12-14T08:12:21;11.70;99.90
2024;DHT22;1016;48.770;9.154;2023-12-14T08:14:47;11.70;99.90
2024;DHT22;1016;48.770;9.154;2023-12-14T08:17:13;11.70;99.90
2024;DHT22;1016;48.770;9.154;2023-12-14T08:19:38;11.80;99.90
2024;DHT22;1016;48.770;9.154;2023-12-14T08:22:04;11.70;99.90
2024;DHT22;1016;48.770;9.154;2023-12-14T08:24:29;11.70;99.90
2024;DHT22;1016;48.770;9.154;2023-12-14T08:26:55;11.70;99.90
2024;DHT22;1016;48.770;9.154;2023-12-14T08:29:22;11.70;99.90
2024;DHT22;1016;48.770;9.154;2023-12-14T08:31:49;11.70;99.90
2024;DHT22;1016;48.770;9.154;2023-12-14T08:34:16;11.70;99.90
2024;DHT22;1016;48.770;9.154;2023-12-14T08:36:45;11.70;99.90
2024;DHT22;1016;48.770;9.154;2023-12-14T08:39:10;11.70;99.90
2024;DHT22;1016;48.770;9.154;2023-12-14T08:41:36;11.70;99.90
2024;DHT22;1016;48.770;9.154;2023-12-14T08:44:02;11.70;99.90
2024;DHT22;1016;48.770;9.154;2023-12-14T08:46:42;11.70;99.90
2024;DHT22;1016;48.770;9.154;2023-12-14T08:49:09;11.70;99.90
2024;DHT22;1016;48.770;9.154;2023-12-14T08:51:42;11.70;99.90
2024;DHT22;1016;48.770;9.154;2023-12-14T08:54:10;11.70;99.90
2024;DHT22;1016;48.770;9.154;2023-12-14T08:56:45;11.70;99.90
2024;DHT22;1016;48.770;9.154;2023-12-14T08:59:13;11.60;99.90
2024;DHT22;1016;48.770;9.154;2023-12-14T09:01:40;11.70;99.90
2024;DHT22;1016;48.770;9.154;2023-12-14T09:04:22;11.80;99.90
2024;DHT22;1016;48.770;9.154;2023-12-14T09:06:48;11.70;99.90
2024;DHT22;1016;48.770;9.154;2023-12-14T09:09:15;11.80;99.90
2024;DHT22;1016;48.770;9.154;2023-12-14T09:11:42;11.80;99.90
2024;DHT22;1016;48.770;9.154;2023-12-14T09:14:09;11.70;99.90
2024;DHT22;1016;48.770;9.154;2023-12-14T09:16:35;11.80;99.90
2024;DHT22;1016;48.770;9.154;2023-12-14T09:19:00;11.90;99.90
2024;DHT22;1016;48.770;9.154;2023-12-14T09:21:26;11.70;99.90
2024;DHT22;1016;48.770;9.154;2023-12-14T09:23:51;11.70;99.90
2024;DHT22;1016;48.770;9.154;2023-12-14T09:26:19;11.80;99.90
2024;DHT22;1016;48.770;9.154;2023-12-14T09:28:44;11.80;99.90
2024;DHT22;1016;48.770;9.154;2023-12-14T09:31:13;11.80;99.90
2024;DHT22;1016;48.770;9.154;2023-12-14T09:33:45;11.70;99.90
2024;DHT22;1016;48.770;9.154;2023-12-14T09:36:11;11.90;99.90
2024;DHT22;1016;48.770;9.154;2023-12-14T09:38:37;11.80;99.90
2024;DHT22;1016;48.770;9.154;2023-12-14T09:41:12;11.80;99.90
2024;DHT22;1016;48.770;9.154;2023-12-14T09:43:38;11.80;99.90
2024;DHT22;1016;48.770;9.154;2023-12-14T09:46:04;11.70;99.90
2024;DHT22;1016;48.770;9.154;2023-12-14T09:48:29;11.80;99.90
2024;DHT22;1016;48.770;9.154;2023-12-14T09:50:56;11.70;99.90
2024;DHT22;1016;48.770;9.154;2023-12-14T09:53:25;11.70;99.90
2024;DHT22;1016;48.770;9.154;2023-12-14T09:55:52;11.70;99.90
2024;DHT22;1016;48.770;9.154;2023-12-14T09:58:20;11.90;99.90
2024;DHT22;1016;48.770;9.154;2023-12-14T10:00:46;11.90;99.90
2024;DHT22;1016;48.770;9.154;2023-12-14T10:05:47;11.80;99.90
2024;DHT22;1016;48.770;9.154;2023-12-14T10:08:17;11.70;99.90
2024;DHT22;1016;48.770;9.154;2023-12-14T10:10:44;11.80;99.90
2024;DHT22;1016;48.770;9.154;2023-12-14T10:13:10;11.70;99.90
2024;DHT22;1016;48.770;9.154;2023-12-14T10:15:44;11.80;99.90
2024;DHT22;1016;48.770;9.154;2023-12-14T10:18:12;11.70;99.90
2024;DHT22;1016;48.770;9.154;2023-12-14T10:20:40;11.80;99.90
2024;DHT22;1016;48.770;9.154;2023-12-14T10:23:07;11.80;99.90
2024;DHT22;1016;48.770;9.154;2023-12-14T10:25:38;11.70;99.90
2024;DHT22;1016;48.770;9.154;2023-12-14T10:28:06;11.90;99.90
2024;DHT22;1016;48.770;9.154;2023-12-14T10:30:33;11.90;99.90
2024;DHT22;1016;48.770;9.154;2023-12-14T10:33:02;11.80;99.90
2024;DHT22;1016;48.770;9.154;2023-12-14T10:35:27;11.70;99.90
2024;DHT22;1016;48.770;9.154;2023-12-14T10:37:53;11.80;99.90
2024;DHT22;1016;48.770;9.154;2023-12-14T10:40:22;11.80;99.90
2024;DHT22;1016;48.770;9.154;2023-12-14T10:42:49;11.80;99.90
2024;DHT22;1016;48.770;9.154;2023-12-14T10:45:16;11.80;99.90
2024;DHT22;1016;48.770;9.154;2023-12-14T10:47:44;12.00;99.90
2024;DHT22;1016;48.770;9.154;2023-12-14T10:50:24;11.90;99.90
2024;DHT22;1016;48.770;9.154;2023-12-14T10:52:50;11.70;99.90
2024;DHT22;1016;48.770;9.154;2023-12-14T10:55:46;11.90;99.90
2024;DHT22;1016;48.770;9.154;2023-12-14T10:58:26;12.00;99.90
2024;DHT22;1016;48.770;9.154;2023-12-14T11:01:00;11.90;99.90
2024;DHT22;1016;48.770;9.154;2023-12-14T11:03:43;12.00;99.90
2024;DHT22;1016;48.770;9.154;2023-12-14T11:08:54;11.90;99.90
2024;DHT22;1016;48.770;9.154;2023-12-14T11:11:22;12.00;99.90
2024;DHT22;1016;48.770;9.154;2023-12-14T11:16:44;11.80;99.90
2024;DHT22;1016;48.770;9.154;2023-12-14T11:24:37;11.90;99.90
2024;DHT22;1016;48.770;9.154;2023-12-14T11:27:12;12.10;99.90
2024;DHT22;1016;48.770;9.154;2023-12-14T11:29:45;12.00;99.90
2024;DHT22;1016;48.770;9.154;2023-12-14T11:32:13;12.00;99.90
2024;DHT22;1016;48.770;9.154;2023-12-14T11:34:39;12.20;99.90
2024;DHT22;1016;48.770;9.154;2023-12-14T11:37:05;12.00;99.90
2024;DHT22;1016;48.770;9.154;2023-12-14T11:39:34;12.20;99.90
2024;DHT22;1016;48.770;9.154;2023-12-14T11:42:03;12.00;99.90
2024;DHT22;1016;48.770;9.154;2023-12-14T11:44:28;12.00;99.90
2024;DHT22;1016;48.770;9.154;2023-12-14T11:46:56;12.00;99.90
2024;DHT22;1016;48.770;9.154;2023-12-14T11:49:26;12.00;99.90
2024;DHT22;1016;48.770;9.154;2023-12-14T11:51:55;12.20;99.90
2024;DHT22;1016;48.770;9.154;2023-12-14T11:54:21;12.00;99.90
2024;DHT22;1016;48.770;9.154;2023-12-14T11:56:48;12.10;99.90
2024;DHT22;1016;48.770;9.154;2023-12-14T11:59:18;12.10;99.90
2024;DHT22;1016;48.770;9.154;2023-12-14T12:01:58;12.00;99.90
2024;DHT22;1016;48.770;9.154;2023-12-14T12:04:25;12.00;99.90
2024;DHT22;1016;48.770;9.154;2023-12-14T12:07:02;12.00;99.90
2024;DHT22;1016;48.770;9.154;2023-12-14T12:09:42;12.00;99.90
2024;DHT22;1016;48.770;9.154;2023-12-14T12:12:11;12.00;99.90
2024;DHT22;1016;48.770;9.154;2023-12-14T12:14:39;12.00;99.90
2024;DHT22;1016;48.770;9.154;2023-12-14T12:17:05;12.00;99.90
2024;DHT22;1016;48.770;9.154;2023-12-14T12:19:36;12.10;99.90
2024;DHT22;1016;48.770;9.154;2023-12-14T12:22:10;12.00;99.90
2024;DHT22;1016;48.770;9.154;2023-12-14T12:24:35;12.10;99.90
2024;DHT22;1016;48.770;9.154;2023-12-14T12:27:01;12.00;99.90
2024;DHT22;1016;48.770;9.154;2023-12-14T12:29:50;12.00;99.90
2024;DHT22;1016;48.770;9.154;2023-12-14T12:32:19;12.00;99.90
2024;DHT22;1016;48.770;9.154;2023-12-14T12:34:46;12.20;99.90
2024;DHT22;1016;48.770;9.154;2023-12-14T12:37:15;12.10;99.90
2024;DHT22;1016;48.770;9.154;2023-12-14T12:39:41;12.00;99.90
2024;DHT22;1016;48.770;9.154;2023-12-14T12:42:07;12.10;99.90
2024;DHT22;1016;48.770;9.154;2023-12-14T12:44:33;12.00;99.90
2024;DHT22;1016;48.770;9.154;2023-12-14T12:46:59;12.20;99.90
2024;DHT22;1016;48.770;9.154;2023-12-14T12:49:24;12.20;99.90
2024;DHT22;1016;48.770;9.154;2023-12-14T12:51:53;12.20;99.90
2024;DHT22;1016;48.770;9.154;2023-12-14T12:54:18;12.10;99.90
2024;DHT22;1016;48.770;9.154;2023-12-14T12:56:44;12.00;99.90
2024;DHT22;1016;48.770;9.154;2023-12-14T12:59:11;11.90;99.90
2024;DHT22;1016;48.770;9.154;2023-12-14T13:01:37;11.90;99.90
2024;DHT22;1016;48.770;9.154;2023-12-14T13:04:03;11.90;99.90
2024;DHT22;1016;48.770;9.154;2023-12-14T13:06:30;12.00;99.90
2024;DHT22;1016;48.770;9.154;2023-12-14T13:08:58;11.90;99.90
2024;DHT22;1016;48.770;9.154;2023-12-14T13:11:26;11.90;99.90
2024;DHT22;1016;48.770;9.154;2023-12-14T13:13:56;11.80;99.90
2024;DHT22;1016;48.770;9.154;2023-12-14T13:16:23;11.80;99.90
2024;DHT22;1016;48.770;9.154;2023-12-14T13:18:49;11.80;99.90
2024;DHT22;1016;48.770;9.154;2023-12-14T13:21:15;12.00;99.90
2024;DHT22;1016;48.770;9.154;2023-12-14T13:23:45;12.00;99.90
2024;DHT22;1016;48.770;9.154;2023-12-14T13:26:11;11.80;99.90
2024;DHT22;1016;48.770;9.154;2023-12-14T13:28:37;11.80;99.90
2024;DHT22;1016;48.770;9.154;2023-12-14T13:31:03;11.90;99.90
2024;DHT22;1016;48.770;9.154;2023-12-14T13:33:29;11.60;99.90
2024;DHT22;1016;48.770;9.154;2023-12-14T13:35:54;11.80;99.90
2024;DHT22;1016;48.770;9.154;2023-12-14T13:38:20;12.00;99.90
2024;DHT22;1016;48.770;9.154;2023-12-14T13:40:47;11.90;99.90
2024;DHT22;1016;48.770;9.154;2023-12-14T13:43:13;11.90;99.90
2024;DHT22;1016;48.770;9.154;2023-12-14T13:45:42;11.80;99.90
2024;DHT22;1016;48.770;9.154;2023-12-14T13:48:09;11.90;99.90
2024;DHT22;1016;48.770;9.154;2023-12-14T13:50:36;11.80;99.90
2024;DHT22;1016;48.770;9.154;2023-12-14T13:53:02;11.80;99.90
2024;DHT22;1016;48.770;9.154;2023-12-14T13:55:31;11.80;99.90
2024;DHT22;1016;48.770;9.154;2023-12-14T13:57:57;11.80;99.90
2024;DHT22;1016;48.770;9.154;2023-12-14T14:00:25;11.90;99.90
2024;DHT22;1016;48.770;9.154;2023-12-14T14:02:55;11.80;99.90
2024;DHT22;1016;48.770;9.154;2023-12-14T14:05:23;11.80;99.90
2024;DHT22;1016;48.770;9.154;2023-12-14T14:07:49;11.90;99.90
2024;DHT22;1016;48.770;9.154;2023-12-14T14:10:18;11.90;99.90
2024;DHT22;1016;48.770;9.154;2023-12-14T14:12:45;11.80;99.90
2024;DHT22;1016;48.770;9.154;2023-12-14T14:15:18;11.70;99.90
2024;DHT22;1016;48.770;9.154;2023-12-14T14:17:45;11.90;99.90
2024;DHT22;1016;48.770;9.154;2023-12-14T14:20:22;11.90;99.90
2024;DHT22;1016;48.770;9.154;2023-12-14T14:22:50;11.80;99.90
2024;DHT22;1016;48.770;9.154;2023-12-14T14:25:16;11.80;99.90
2024;DHT22;1016;48.770;9.154;2023-12-14T14:27:42;11.80;99.90
2024;DHT22;1016;48.770;9.154;2023-12-14T14:30:20;11.90;99.90
2024;DHT22;1016;48.770;9.154;2023-12-14T14:32:49;11.90;99.90
2024;DHT22;1016;48.770;9.154;2023-12-14T14:35:15;11.80;99.90
2024;DHT22;1016;48.770;9.154;2023-12-14T14:37:41;11.90;99.90
2024;DHT22;1016;48.770;9.154;2023-12-14T14:40:29;11.80;99.90
2024;DHT22;1016;48.770;9.154;2023-12-14T14:43:12;11.80;99.90
2024;DHT22;1016;48.770;9.154;2023-12-14T14:45:39;11.70;99.90
2024;DHT22;1016;48.770;9.154;2023-12-14T14:48:05;11.80;99.90
2024;DHT22;1016;48.770;9.154;2023-12-14T14:50:34;11.80;99.90
2024;DHT22;1016;48.770;9.154;2023-12-14T14:53:03;11.80;99.90
2024;DHT22;1016;48.770;9.154;2023-12-14T14:55:29;11.80;99.90
2024;DHT22;1016;48.770;9.154;2023-12-14T14:57:55;11.80;99.90
2024;DHT22;1016;48.770;9.154;2023-12-14T15:00:21;11.90;99.90
2024;DHT22;1016;48.770;9.154;2023-12-14T15:02:49;11.90;99.90
2024;DHT22;1016;48.770;9.154;2023-12-14T15:05:23;11.90;99.90
2024;DHT22;1016;48.770;9.154;2023-12-14T15:07:48;11.70;99.90
2024;DHT22;1016;48.770;9.154;2023-12-14T15:10:17;11.60;99.90
2024;DHT22;1016;48.770;9.154;2023-12-14T15:12:43;11.80;99.90
2024;DHT22;1016;48.770;9.154;2023-12-14T15:15:08;11.80;99.90
2024;DHT22;1016;48.770;9.154;2023-12-14T15:17:34;11.80;99.90
2024;DHT22;1016;48.770;9.154;2023-12-14T15:20:09;11.80;99.90
2024;DHT22;1016;48.770;9.154;2023-12-14T15:22:52;11.80;99.90
2024;DHT22;1016;48.770;9.154;2023-12-14T15:25:18;11.80;99.90
2024;DHT22;1016;48.770;9.154;2023-12-14T15:27:45;11.90;99.90
2024;DHT22;1016;48.770;9.154;2023-12-14T15:30:17;11.60;99.90
2024;DHT22;1016;48.770;9.154;2023-12-14T15:32:50;11.80;99.90
2024;DHT22;1016;48.770;9.154;2023-12-14T15:35:16;11.70;99.90
2024;DHT22;1016;48.770;9.154;2023-12-14T15:37:42;11.90;99.90
2024;DHT22;1016;48.770;9.154;2023-12-14T15:40:08;11.80;99.90
2024;DHT22;1016;48.770;9.154;2023-12-14T15:42:34;11.80;99.90
2024;DHT22;1016;48.770;9.154;2023-12-14T15:45:00;11.60;99.90
2024;DHT22;1016;48.770;9.154;2023-12-14T15:47:35;11.90;99.90
2024;DHT22;1016;48.770;9.154;2023-12-14T15:50:01;11.90;99.90
2024;DHT22;1016;48.770;9.154;2023-12-14T15:52:27;11.80;99.90
2024;DHT22;1016;48.770;9.154;2023-12-14T15:54:53;11.60;99.90
2024;DHT22;1016;48.770;9.154;2023-12-14T15:57:19;11.90;99.90
2024;DHT22;1016;48.770;9.154;2023-12-14T15:59:47;11.70;99.90
2024;DHT22;1016;48.770;9.154;2023-12-14T16:02:15;11.80;99.90
2024;DHT22;1016;48.770;9.154;2023-12-14T16:04:41;11.90;99.90
2024;DHT22;1016;48.770;9.154;2023-12-14T16:07:06;11.70;99.90
2024;DHT22;1016;48.770;9.154;2023-12-14T16:09:32;11.70;99.90
2024;DHT22;1016;48.770;9.154;2023-12-14T16:12:00;11.90;99.90
2024;DHT22;1016;48.770;9.154;2023-12-14T16:14:29;11.80;99.90
2024;DHT22;1016;48.770;9.154;2023-12-14T16:16:55;11.70;99.90